Elizabethton, Tennessee
Current Conditions -  °F | °C
As of 9:15 PM on Monday 22 Dec 2014 (Local Time) from K0A9 Reporting Station
Scattered Clouds Scattered Clouds  
Wind Chill: 43°   Ceiling: Unl
Heat Index: 46°   Visibility: 10mi
Dew Point: 41°   Wind: 7mph
Humidity: 81%   Direction: 110°ESE
Pressure: 29.9"   Gusts: NA
Location:  36.35°N, 82.22°W
Report Text: K0A9 230215Z AUTO 11006KT 10SM SCT100 08/05 A2990 RMK
Loading
Personal Weather Stations






























Interactive Weather Map New forecast layout! Learn more

10-Day Weather Forecast

Advertisements
Track Severe Weather on mobile